createdAt,value
2018-05-29T00:03:47.204Z,65.53
2018-05-29T00:06:14.836Z,65.41
2018-05-29T00:08:42.390Z,65.62
2018-05-29T00:11:09.988Z,65.77
2018-05-29T00:13:37.671Z,65.89
2018-05-29T00:16:05.342Z,65.82
2018-05-29T00:18:32.949Z,65.56
2018-05-29T00:21:00.558Z,65.89
2018-05-29T00:23:28.186Z,66.09
2018-05-29T00:25:55.708Z,66.17
2018-05-29T00:28:23.316Z,66.29
2018-05-29T00:30:50.927Z,66.45
2018-05-29T00:33:18.614Z,66.42
2018-05-29T00:35:46.305Z,66.39
2018-05-29T00:38:13.919Z,66.17
2018-05-29T00:40:41.537Z,66.26
2018-05-29T00:43:09.202Z,66.30
2018-05-29T00:45:36.905Z,66.39
2018-05-29T00:48:04.491Z,66.23
2018-05-29T00:50:32.181Z,66.62
2018-05-29T00:52:59.781Z,66.61
2018-05-29T00:55:39.392Z,66.63
2018-05-29T00:58:07.162Z,66.60
2018-05-29T01:00:34.970Z,66.44
2018-05-29T01:03:06.401Z,66.46
2018-05-29T01:05:34.147Z,66.47
2018-05-29T01:08:01.774Z,66.62
2018-05-29T01:10:29.459Z,66.60
2018-05-29T01:12:57.272Z,66.69
2018-05-29T01:15:24.892Z,66.84
2018-05-29T01:17:52.412Z,67.02
2018-05-29T01:20:20.081Z,67.18
2018-05-29T01:22:47.659Z,67.16
2018-05-29T01:25:16.087Z,66.92
2018-05-29T01:27:43.696Z,66.89
2018-05-29T01:30:11.339Z,67.16
2018-05-29T01:32:39.349Z,67.20
2018-05-29T01:35:07.218Z,67.35
2018-05-29T01:37:34.896Z,67.12
2018-05-29T01:40:02.544Z,66.88
2018-05-29T01:42:30.142Z,67.21
2018-05-29T01:44:57.795Z,67.23
2018-05-29T01:47:25.410Z,67.24
2018-05-29T01:49:52.975Z,66.72
2018-05-29T01:52:41.851Z,67.04
2018-05-29T01:55:09.784Z,67.12
2018-05-29T01:57:37.399Z,67.88
2018-05-29T02:00:04.916Z,68.19
2018-05-29T02:02:34.630Z,68.33
2018-05-29T02:05:02.304Z,68.33
2018-05-29T02:07:30.233Z,68.27
2018-05-29T02:09:57.801Z,68.01
2018-05-29T02:12:25.396Z,68.27
2018-05-29T02:14:53.061Z,68.58
2018-05-29T02:17:20.604Z,68.71
2018-05-29T02:19:48.116Z,68.56
2018-05-29T02:22:15.731Z,68.15
2018-05-29T02:24:43.365Z,68.16
2018-05-29T02:27:11.911Z,67.95
2018-05-29T02:29:39.549Z,67.38
2018-05-29T02:32:07.162Z,67.53
2018-05-29T02:34:34.815Z,67.55
2018-05-29T02:39:39.433Z,68.13
2018-05-29T02:42:07.120Z,68.37
2018-05-29T02:44:34.716Z,68.18
2018-05-29T02:47:02.637Z,67.91
2018-05-29T02:49:30.676Z,68.02
2018-05-29T02:51:58.537Z,67.93
2018-05-29T02:54:26.054Z,68.24
2018-05-29T02:56:53.613Z,68.27
2018-05-29T02:59:21.621Z,68.59
2018-05-29T03:01:49.261Z,68.67
2018-05-29T03:04:16.789Z,68.54
2018-05-29T03:09:18.532Z,68.49
2018-05-29T03:11:46.131Z,68.37
2018-05-29T03:14:13.789Z,68.71
2018-05-29T03:16:41.369Z,68.70
2018-05-29T03:19:08.907Z,68.77
2018-05-29T03:21:36.498Z,68.76
2018-05-29T03:24:04.056Z,68.51
2018-05-29T03:26:31.655Z,68.32
2018-05-29T03:28:59.189Z,67.87
2018-05-29T03:31:26.717Z,68.22
2018-05-29T03:33:54.259Z,68.79
2018-05-29T03:36:21.856Z,68.43
2018-05-29T03:38:49.436Z,68.23
2018-05-29T03:41:17.075Z,68.55
2018-05-29T03:43:44.660Z,68.87
2018-05-29T03:46:12.277Z,68.83
2018-05-29T03:48:43.617Z,68.68
2018-05-29T03:51:11.225Z,68.79
2018-05-29T03:53:42.373Z,68.56
2018-05-29T03:56:09.899Z,68.45
2018-05-29T03:58:37.443Z,69.05
2018-05-29T04:01:04.976Z,69.29
2018-05-29T04:03:32.504Z,69.53
2018-05-29T04:06:00.062Z,69.34
2018-05-29T04:08:27.583Z,69.31
2018-05-29T04:10:55.107Z,69.09
2018-05-29T04:13:22.835Z,69.74
2018-05-29T04:15:50.449Z,69.90
2018-05-29T04:18:18.055Z,70.04
2018-05-29T04:20:45.601Z,70.17
2018-05-29T04:23:13.135Z,70.31
2018-05-29T04:25:40.673Z,70.12
2018-05-29T04:28:08.252Z,69.95
2018-05-29T04:30:35.879Z,69.75
2018-05-29T04:33:03.522Z,69.49
2018-05-29T04:35:31.785Z,69.21
2018-05-29T04:37:59.359Z,69.00
2018-05-29T04:40:26.987Z,69.00
2018-05-29T04:42:54.657Z,69.26
2018-05-29T04:45:22.353Z,69.40
2018-05-29T04:47:50.002Z,69.14
2018-05-29T04:50:17.601Z,68.80
2018-05-29T04:52:45.243Z,68.49
2018-05-29T04:55:12.854Z,68.08
2018-05-29T04:57:40.515Z,67.95
2018-05-29T05:00:08.067Z,67.70
2018-05-29T05:02:35.644Z,67.23
2018-05-29T05:05:03.169Z,67.10
2018-05-29T05:07:30.687Z,67.20
2018-05-29T05:09:58.257Z,66.96
2018-05-29T05:12:25.818Z,66.69
2018-05-29T05:17:27.064Z,66.56
2018-05-29T05:19:54.689Z,66.58
2018-05-29T05:22:22.201Z,66.44
2018-05-29T05:24:49.764Z,66.29
2018-05-29T05:27:17.363Z,66.33
2018-05-29T05:29:44.971Z,66.22
2018-05-29T05:32:12.617Z,66.03
2018-05-29T05:34:40.271Z,66.30
2018-05-29T05:37:07.985Z,66.17
2018-05-29T05:39:35.589Z,65.96
2018-05-29T05:42:03.196Z,65.59
2018-05-29T05:44:30.713Z,65.17
2018-05-29T05:46:58.272Z,64.91
2018-05-29T05:49:25.819Z,65.40
2018-05-29T05:51:53.388Z,65.14
2018-05-29T05:54:20.941Z,65.06
2018-05-29T05:56:48.489Z,65.15
2018-05-29T05:59:16.027Z,65.08
2018-05-29T06:01:43.543Z,64.96
2018-05-29T06:04:11.096Z,66.03
2018-05-29T06:06:38.631Z,66.51
2018-05-29T06:09:06.266Z,66.30
2018-05-29T06:11:33.901Z,66.27
2018-05-29T06:14:01.530Z,66.75
2018-05-29T06:16:29.172Z,66.86
2018-05-29T06:18:56.837Z,66.48
2018-05-29T06:21:24.508Z,65.91
2018-05-29T06:23:52.150Z,65.88
2018-05-29T06:26:19.792Z,65.25
2018-05-29T06:28:47.499Z,64.17
2018-05-29T06:31:15.130Z,62.88
2018-05-29T06:33:42.661Z,61.56
2018-05-29T06:36:10.183Z,61.35
2018-05-29T06:38:37.741Z,60.95
2018-05-29T06:41:05.248Z,59.89
2018-05-29T06:43:32.930Z,58.74
2018-05-29T06:46:00.569Z,57.79
2018-05-29T06:48:28.184Z,57.02
2018-05-29T06:50:55.870Z,56.18
2018-05-29T06:53:23.488Z,55.52
2018-05-29T06:55:51.111Z,55.23
2018-05-29T06:58:18.649Z,54.61
2018-05-29T07:00:46.239Z,54.10
2018-05-29T07:03:14.881Z,53.89
2018-05-29T07:05:43.116Z,53.37
2018-05-29T07:08:10.762Z,52.97
2018-05-29T07:10:38.399Z,52.40
2018-05-29T07:13:06.088Z,52.00
2018-05-29T07:15:33.747Z,52.11
2018-05-29T07:18:01.943Z,51.87
2018-05-29T07:20:29.537Z,51.30
2018-05-29T07:22:57.146Z,50.97
2018-05-29T07:25:24.696Z,50.65
2018-05-29T07:27:52.448Z,49.66
2018-05-29T07:30:25.511Z,50.51
2018-05-29T07:32:55.275Z,50.82
2018-05-29T07:35:23.018Z,50.22
2018-05-29T07:37:51.718Z,49.61
2018-05-29T07:40:21.863Z,49.42
2018-05-29T07:42:49.429Z,49.35
2018-05-29T07:45:18.055Z,49.17
2018-05-29T07:47:47.021Z,48.84
2018-05-29T07:50:14.889Z,49.12
2018-05-29T07:52:43.018Z,48.61
2018-05-29T07:55:11.571Z,49.26
2018-05-29T07:57:39.244Z,49.21
2018-05-29T08:00:10.839Z,49.14
2018-05-29T08:02:42.073Z,50.01
2018-05-29T08:05:10.418Z,51.59
2018-05-29T08:07:38.237Z,51.54
2018-05-29T08:10:07.061Z,50.63
2018-05-29T08:12:35.631Z,49.69
2018-05-29T08:15:04.555Z,49.47
2018-05-29T08:17:35.502Z,49.24
2018-05-29T08:20:04.251Z,50.97
2018-05-29T08:22:34.205Z,50.95
2018-05-29T08:25:02.592Z,50.12
2018-05-29T08:27:30.848Z,49.13
2018-05-29T08:30:08.601Z,48.50
2018-05-29T08:32:37.890Z,48.71
2018-05-29T08:35:05.549Z,48.55
2018-05-29T08:40:14.593Z,47.70
2018-05-29T08:47:49.887Z,48.61
2018-05-29T08:50:20.791Z,48.43
2018-05-29T08:52:49.437Z,47.33
2018-05-29T08:55:24.001Z,48.10
2018-05-29T08:57:52.283Z,47.96
2018-05-29T09:00:20.650Z,47.98
2018-05-29T09:02:57.233Z,47.91
2018-05-29T09:05:25.813Z,47.14
2018-05-29T09:07:54.433Z,47.00
2018-05-29T09:10:28.575Z,46.30
2018-05-29T09:12:58.224Z,45.65
2018-05-29T09:15:49.012Z,45.08
2018-05-29T09:20:58.286Z,44.80
2018-05-29T09:23:31.849Z,45.02
2018-05-29T09:28:50.366Z,44.51
2018-05-29T09:31:22.368Z,43.97
2018-05-29T09:33:56.895Z,43.35
2018-05-29T09:36:24.588Z,44.68
2018-05-29T09:38:53.689Z,44.24
2018-05-29T09:41:28.981Z,43.90
2018-05-29T09:43:59.799Z,43.55
2018-05-29T09:46:31.701Z,42.91
2018-05-29T09:49:00.461Z,41.08
2018-05-29T10:05:31.290Z,38.75
2018-05-29T10:08:09.554Z,39.34
2018-05-29T10:13:29.301Z,38.23
2018-05-29T10:16:11.155Z,38.15
2018-05-29T10:19:15.130Z,37.90
2018-05-29T10:22:05.242Z,37.65
2018-05-29T10:24:38.075Z,38.17
2018-05-29T10:27:07.867Z,36.89
2018-05-29T10:29:35.533Z,37.36
2018-05-29T10:32:04.338Z,38.26
2018-05-29T10:34:39.128Z,36.51
2018-05-29T10:37:22.297Z,38.37
2018-05-29T10:39:51.176Z,38.67
2018-05-29T10:42:19.584Z,38.78
2018-05-29T10:44:49.502Z,38.87
2018-05-29T10:47:29.962Z,38.78
2018-05-29T10:49:58.441Z,37.08
2018-05-29T10:52:27.853Z,38.07
2018-05-29T10:55:00.720Z,37.79
2018-05-29T10:57:29.440Z,35.96
2018-05-29T11:00:05.145Z,36.08
2018-05-29T11:08:15.555Z,35.87
2018-05-29T11:13:33.137Z,35.04
2018-05-29T11:16:03.241Z,34.58
2018-05-29T11:21:40.824Z,34.49
2018-05-29T11:24:10.204Z,34.17
2018-05-29T11:26:45.292Z,33.63
2018-05-29T11:29:14.370Z,34.04
2018-05-29T11:31:54.583Z,32.94
2018-05-29T11:34:26.699Z,33.36
2018-05-29T11:39:49.430Z,33.03
2018-05-29T11:42:30.477Z,34.16
2018-05-29T11:45:20.537Z,34.22
2018-05-29T11:47:50.113Z,33.84
2018-05-29T11:50:20.713Z,34.25
2018-05-29T11:52:49.735Z,34.85
2018-05-29T11:55:23.072Z,33.86
2018-05-29T11:57:52.832Z,34.50
2018-05-29T12:00:29.296Z,33.99
2018-05-29T12:03:03.147Z,33.28
2018-05-29T12:05:54.677Z,33.42
2018-05-29T12:08:36.092Z,32.80
2018-05-29T12:11:12.746Z,31.90
2018-05-29T12:13:45.118Z,31.30
2018-05-29T12:16:22.977Z,32.00
2018-05-29T12:18:51.244Z,31.48
2018-05-29T12:26:11.608Z,31.44
2018-05-29T12:28:47.559Z,31.88
2018-05-29T12:31:33.418Z,32.08
2018-05-29T12:48:35.377Z,33.23
2018-05-29T12:51:09.462Z,32.93
2018-05-29T13:09:12.955Z,34.11
2018-05-29T13:11:51.604Z,34.10
2018-05-29T13:14:50.211Z,34.13
2018-05-29T13:20:44.092Z,33.03
2018-05-29T14:35:35.284Z,34.37
2018-05-29T14:38:12.948Z,34.82
2018-05-29T14:40:53.727Z,34.33
2018-05-29T14:46:49.465Z,33.02
2018-05-29T14:49:17.211Z,34.04
2018-05-29T14:51:45.526Z,34.54
2018-05-29T14:54:14.977Z,34.56
2018-05-29T14:56:57.377Z,34.87
2018-05-29T15:02:26.292Z,35.14
2018-05-29T15:09:49.063Z,33.91
2018-05-29T15:14:59.500Z,33.95
2018-05-29T15:20:27.803Z,33.99
2018-05-29T15:23:05.216Z,34.22
2018-05-29T15:25:33.627Z,33.73
2018-05-29T15:28:02.227Z,34.71
2018-05-29T15:30:36.697Z,34.31
2018-05-29T15:33:16.101Z,34.13
2018-05-29T15:35:54.458Z,34.04
2018-05-29T15:38:24.625Z,34.64
2018-05-29T15:41:13.574Z,35.05
2018-05-29T15:47:05.474Z,34.44
2018-05-29T15:49:47.085Z,34.57
2018-05-29T15:52:24.381Z,34.62
2018-05-29T15:54:55.730Z,34.51
2018-05-29T16:00:45.756Z,33.77
2018-05-29T16:03:35.944Z,33.82
2018-05-29T16:06:05.820Z,33.73
2018-05-29T16:22:35.071Z,34.58
2018-05-29T16:25:11.048Z,35.02
2018-05-29T16:27:43.843Z,34.76
2018-05-29T16:30:20.891Z,35.12
2018-05-29T16:32:49.002Z,35.14
2018-05-29T16:38:04.310Z,35.10
2018-05-29T16:40:33.512Z,35.24
2018-05-29T16:43:13.686Z,35.46
2018-05-29T16:46:01.328Z,35.92
2018-05-29T16:48:29.108Z,36.18
2018-05-29T16:51:00.031Z,35.91
2018-05-29T16:53:35.727Z,36.37
2018-05-29T16:56:03.653Z,36.66
2018-05-29T16:58:33.331Z,36.52
2018-05-29T17:01:05.994Z,36.40
2018-05-29T17:03:37.952Z,36.24
2018-05-29T17:06:06.603Z,36.47
2018-05-29T17:08:36.212Z,36.82
2018-05-29T17:11:04.093Z,36.79
2018-05-29T17:13:32.526Z,38.13
2018-05-29T17:16:00.294Z,38.87
2018-05-29T17:18:28.379Z,39.70
2018-05-29T17:20:59.578Z,40.27
2018-05-29T17:23:27.312Z,40.91
2018-05-29T17:25:54.981Z,41.80
2018-05-29T17:28:23.041Z,42.22
2018-05-29T17:30:50.631Z,42.55
2018-05-29T17:33:19.504Z,43.17
2018-05-29T17:35:47.142Z,43.44
2018-05-29T17:38:14.964Z,43.66
2018-05-29T17:40:42.963Z,43.42
2018-05-29T17:43:12.174Z,43.53
2018-05-29T17:45:39.852Z,44.32
2018-05-29T17:48:07.536Z,44.32
2018-05-29T17:50:36.230Z,44.38
2018-05-29T17:53:03.905Z,44.26
2018-05-29T17:55:31.596Z,44.57
2018-05-29T17:58:00.036Z,44.78
2018-05-29T18:00:28.553Z,44.98
2018-05-29T18:02:57.128Z,45.33
2018-05-29T18:05:33.460Z,45.72
2018-05-29T18:08:01.246Z,46.29
2018-05-29T18:10:29.995Z,46.41
2018-05-29T18:12:57.741Z,46.51
2018-05-29T18:15:25.553Z,46.68
2018-05-29T18:17:53.252Z,47.14
2018-05-29T18:20:20.896Z,47.11
2018-05-29T18:22:48.831Z,47.31
2018-05-29T18:25:17.455Z,47.71
2018-05-29T18:27:45.441Z,47.66
2018-05-29T18:30:13.109Z,47.99
2018-05-29T18:32:40.948Z,48.08
2018-05-29T18:35:08.618Z,48.23
2018-05-29T18:37:36.255Z,48.11
2018-05-29T18:40:04.015Z,48.26
2018-05-29T18:42:32.297Z,48.59
2018-05-29T18:44:59.979Z,48.36
2018-05-29T18:47:27.906Z,48.58
2018-05-29T18:49:56.639Z,48.77
2018-05-29T18:52:24.389Z,48.69
2018-05-29T18:54:53.071Z,48.67
2018-05-29T18:57:20.740Z,48.29
2018-05-29T18:59:48.457Z,47.88
2018-05-29T19:02:16.193Z,47.93
2018-05-29T19:04:44.774Z,48.22
2018-05-29T19:07:12.586Z,48.40
2018-05-29T19:09:40.201Z,48.73
2018-05-29T19:12:07.961Z,48.79
2018-05-29T19:14:35.885Z,48.75
2018-05-29T19:17:03.738Z,49.15
2018-05-29T19:19:31.436Z,49.50
2018-05-29T19:21:59.058Z,49.58
2018-05-29T19:24:26.786Z,50.14
2018-05-29T19:26:54.418Z,50.83
2018-05-29T19:29:22.097Z,51.17
2018-05-29T19:31:50.220Z,51.56
2018-05-29T19:34:17.990Z,51.84
2018-05-29T19:36:45.677Z,51.87
2018-05-29T19:39:13.344Z,52.11
2018-05-29T19:41:41.049Z,52.18
2018-05-29T19:44:08.778Z,52.20
2018-05-29T19:46:36.916Z,52.20
2018-05-29T19:49:04.569Z,52.18
2018-05-29T19:51:32.488Z,52.32
2018-05-29T19:54:00.193Z,52.33
2018-05-29T19:56:27.823Z,52.83
2018-05-29T19:58:55.668Z,53.23
2018-05-29T20:01:23.389Z,52.96
2018-05-29T20:03:51.025Z,52.93
2018-05-29T20:06:18.665Z,53.66
2018-05-29T20:08:46.213Z,53.60
2018-05-29T20:11:14.365Z,53.80
2018-05-29T20:13:42.128Z,53.86
2018-05-29T20:16:09.754Z,54.52
2018-05-29T20:18:37.493Z,54.64
2018-05-29T20:21:05.132Z,54.63
2018-05-29T20:23:32.818Z,54.44
2018-05-29T20:26:00.434Z,54.58
2018-05-29T20:28:28.289Z,54.93
2018-05-29T20:30:56.110Z,54.98
2018-05-29T20:33:23.797Z,55.55
2018-05-29T20:35:51.490Z,55.94
2018-05-29T20:38:19.144Z,56.01
2018-05-29T20:40:46.745Z,55.85
2018-05-29T20:43:14.390Z,55.54
2018-05-29T20:45:42.103Z,55.97
2018-05-29T20:48:09.815Z,55.67
2018-05-29T20:50:37.497Z,55.76
2018-05-29T20:53:05.128Z,56.03
2018-05-29T20:55:32.746Z,56.17
2018-05-29T20:58:00.412Z,56.02
2018-05-29T21:00:28.744Z,55.74
2018-05-29T21:02:56.444Z,55.80
2018-05-29T21:05:24.093Z,55.58
2018-05-29T21:07:51.759Z,55.57
2018-05-29T21:10:19.327Z,55.44
2018-05-29T21:12:46.879Z,55.32
2018-05-29T21:15:14.559Z,55.15
2018-05-29T21:17:42.236Z,55.17
2018-05-29T21:20:10.100Z,55.28
2018-05-29T21:22:37.728Z,55.43
2018-05-29T21:25:05.497Z,55.24
2018-05-29T21:27:33.160Z,55.13
2018-05-29T21:30:01.948Z,55.11
2018-05-29T21:32:29.717Z,55.13
2018-05-29T21:34:57.375Z,55.08
2018-05-29T21:37:25.128Z,55.33
2018-05-29T21:39:53.227Z,55.65
2018-05-29T21:42:21.977Z,55.59
2018-05-29T21:44:49.666Z,55.85
2018-05-29T21:47:18.612Z,56.04
2018-05-29T21:49:46.329Z,55.96
2018-05-29T21:52:14.039Z,56.24
2018-05-29T21:54:41.685Z,56.14
2018-05-29T21:57:09.710Z,56.50
2018-05-29T21:59:38.458Z,56.68
2018-05-29T22:02:06.201Z,56.87
2018-05-29T22:04:33.974Z,56.79
2018-05-29T22:07:01.633Z,56.70
2018-05-29T22:09:29.546Z,56.57
2018-05-29T22:11:57.266Z,56.54
2018-05-29T22:14:25.078Z,56.49
2018-05-29T22:16:52.691Z,56.53
2018-05-29T22:19:22.178Z,56.55
2018-05-29T22:21:49.879Z,56.65
2018-05-29T22:24:17.492Z,56.58
2018-05-29T22:26:45.330Z,57.04
2018-05-29T22:29:13.105Z,57.14
2018-05-29T22:31:41.216Z,57.62
2018-05-29T22:34:08.953Z,57.82
2018-05-29T22:36:36.512Z,57.92
2018-05-29T22:39:04.361Z,57.87
2018-05-29T22:41:32.472Z,58.33
2018-05-29T22:44:00.207Z,58.84
2018-05-29T22:46:27.936Z,58.93
2018-05-29T22:48:55.576Z,58.98
2018-05-29T22:51:23.286Z,58.92
2018-05-29T22:53:51.305Z,58.90
2018-05-29T22:56:18.880Z,59.15
2018-05-29T22:58:46.450Z,59.24
2018-05-29T23:01:14.057Z,59.14
2018-05-29T23:03:41.674Z,59.10
2018-05-29T23:06:09.254Z,59.44
2018-05-29T23:08:36.971Z,59.40
2018-05-29T23:11:04.853Z,59.57
2018-05-29T23:13:32.625Z,59.54
2018-05-29T23:16:00.328Z,59.42
2018-05-29T23:18:28.854Z,59.41
2018-05-29T23:20:56.496Z,59.49
2018-05-29T23:23:25.210Z,59.55
2018-05-29T23:25:52.884Z,60.04
2018-05-29T23:28:20.571Z,60.49
2018-05-29T23:30:48.228Z,60.78
2018-05-29T23:33:16.142Z,60.58
2018-05-29T23:35:44.710Z,61.08
2018-05-29T23:38:12.341Z,61.38
2018-05-29T23:40:40.013Z,61.60
2018-05-29T23:43:08.535Z,61.20
2018-05-29T23:45:36.252Z,61.57
2018-05-29T23:48:04.296Z,61.80
2018-05-29T23:50:31.979Z,61.71
2018-05-29T23:52:59.564Z,61.41
2018-05-29T23:55:27.174Z,61.70
2018-05-29T23:57:54.861Z,62.01
